createdAt,value
2023-11-23T00:00:11.903Z,69.41
2023-11-23T00:02:41.102Z,67.80
2023-11-23T00:05:11.198Z,65.59
2023-11-23T00:07:40.784Z,65.41
2023-11-23T00:10:12.189Z,66.34
2023-11-23T00:12:42.220Z,63.47
2023-11-23T00:15:11.121Z,72.19
2023-11-23T00:17:39.543Z,75.39
2023-11-23T00:20:10.317Z,64.70
2023-11-23T00:22:40.160Z,69.17
2023-11-23T00:25:13.307Z,63.72
2023-11-23T00:27:41.981Z,72.70
2023-11-23T00:30:11.036Z,70.24
2023-11-23T00:32:40.138Z,63.23
2023-11-23T00:35:09.345Z,62.04
2023-11-23T00:37:37.639Z,63.94
2023-11-23T00:40:08.527Z,62.75
2023-11-23T00:42:36.525Z,66.24
2023-11-23T00:45:05.941Z,66.22
2023-11-23T00:47:34.272Z,69.62
2023-11-23T00:50:03.500Z,70.14
2023-11-23T00:52:31.915Z,62.97
2023-11-23T00:55:00.446Z,66.61
2023-11-23T00:57:29.758Z,64.36
2023-11-23T00:59:57.718Z,63.50
2023-11-23T01:02:26.225Z,74.15
2023-11-23T01:04:54.040Z,65.80
2023-11-23T01:07:22.430Z,68.42
2023-11-23T01:09:50.663Z,67.89
2023-11-23T01:12:18.995Z,62.28
2023-11-23T01:14:49.064Z,64.10
2023-11-23T01:17:17.354Z,66.43
2023-11-23T01:19:46.438Z,74.08
2023-11-23T01:22:15.230Z,71.28
2023-11-23T01:24:43.430Z,75.19
2023-11-23T01:27:11.628Z,66.82
2023-11-23T01:29:39.649Z,62.71
2023-11-23T01:32:10.509Z,62.92
2023-11-23T01:34:38.963Z,62.15
2023-11-23T01:37:07.012Z,64.28
2023-11-23T01:39:35.291Z,62.26
2023-11-23T01:42:04.243Z,66.46
2023-11-23T01:44:32.611Z,61.87
2023-11-23T01:47:00.843Z,72.50
2023-11-23T01:49:30.556Z,68.14
2023-11-23T01:51:58.837Z,68.96
2023-11-23T01:54:27.294Z,67.53
2023-11-23T01:56:55.655Z,72.84
2023-11-23T01:59:24.178Z,66.90
2023-11-23T02:01:52.428Z,73.77
2023-11-23T02:04:20.635Z,63.68
2023-11-23T02:06:50.444Z,61.84
2023-11-23T02:09:19.163Z,61.95
2023-11-23T02:11:47.313Z,62.57
2023-11-23T02:14:15.656Z,68.97
2023-11-23T02:16:43.908Z,61.07
2023-11-23T02:19:12.521Z,62.09
2023-11-23T02:21:41.812Z,64.78
2023-11-23T02:24:12.868Z,65.00
2023-11-23T02:26:41.195Z,60.88
2023-11-23T02:29:09.443Z,64.37
2023-11-23T02:31:37.659Z,60.57
2023-11-23T02:34:05.785Z,60.04
2023-11-23T02:36:33.993Z,60.19
2023-11-23T02:39:02.350Z,58.78
2023-11-23T02:41:32.027Z,59.83
2023-11-23T02:44:00.405Z,59.30
2023-11-23T02:46:29.604Z,60.12
2023-11-23T02:48:57.657Z,63.04
2023-11-23T02:51:26.463Z,60.43
2023-11-23T02:53:54.890Z,62.83
2023-11-23T02:56:25.010Z,60.23
2023-11-23T02:58:55.541Z,58.70
2023-11-23T03:01:24.537Z,59.46
2023-11-23T03:03:56.223Z,61.04
2023-11-23T03:06:24.581Z,64.13
2023-11-23T03:08:53.097Z,60.31
2023-11-23T03:11:21.970Z,64.79
2023-11-23T03:13:50.891Z,60.58
2023-11-23T03:16:20.825Z,60.74
2023-11-23T03:18:49.432Z,58.69
2023-11-23T03:21:17.978Z,60.86
2023-11-23T03:23:47.086Z,69.15
2023-11-23T03:26:15.361Z,60.90
2023-11-23T03:28:43.691Z,64.10
2023-11-23T03:31:11.797Z,70.16
2023-11-23T03:33:42.602Z,60.54
2023-11-23T03:36:11.631Z,64.87
2023-11-23T03:38:39.628Z,60.62
2023-11-23T03:41:07.873Z,59.47
2023-11-23T03:43:36.221Z,60.50
2023-11-23T03:46:04.854Z,63.27
2023-11-23T03:48:33.236Z,60.09
2023-11-23T03:51:03.623Z,60.84
2023-11-23T03:53:31.683Z,62.32
2023-11-23T03:56:00.024Z,67.38
2023-11-23T03:58:28.623Z,62.99
2023-11-23T04:00:56.629Z,64.65
2023-11-23T04:03:24.924Z,67.32
2023-11-23T04:05:53.409Z,65.93
2023-11-23T04:08:24.759Z,59.28
2023-11-23T04:10:53.083Z,59.59
2023-11-23T04:13:21.105Z,68.77
2023-11-23T04:15:49.106Z,66.77
2023-11-23T04:18:17.240Z,63.85
2023-11-23T04:20:45.792Z,67.27
2023-11-23T04:23:14.942Z,61.13
2023-11-23T04:25:44.637Z,61.58
2023-11-23T04:28:13.029Z,61.61
2023-11-23T04:30:41.296Z,61.24
2023-11-23T04:33:09.433Z,66.30
2023-11-23T04:35:37.762Z,61.55
2023-11-23T04:38:06.046Z,67.64
2023-11-23T04:40:34.272Z,71.40
2023-11-23T04:43:03.834Z,61.41
2023-11-23T04:45:32.250Z,60.90
2023-11-23T04:48:00.661Z,64.17
2023-11-23T04:50:29.129Z,63.77
2023-11-23T04:52:58.412Z,68.52
2023-11-23T04:55:29.307Z,65.66
2023-11-23T04:57:58.154Z,68.92
2023-11-23T05:00:28.001Z,63.62
2023-11-23T05:02:56.360Z,64.83
2023-11-23T05:05:24.796Z,66.75
2023-11-23T05:07:52.849Z,71.51
2023-11-23T05:10:22.028Z,60.90
2023-11-23T05:12:52.581Z,60.40
2023-11-23T05:15:20.989Z,61.82
2023-11-23T05:17:50.533Z,59.68
2023-11-23T05:20:20.014Z,65.53
2023-11-23T05:22:48.241Z,63.82
2023-11-23T05:25:16.625Z,59.57
2023-11-23T05:27:44.656Z,62.57
2023-11-23T05:30:14.282Z,64.49
2023-11-23T05:32:42.666Z,61.85
2023-11-23T05:35:14.055Z,59.73
2023-11-23T05:37:42.208Z,59.50
2023-11-23T05:40:13.341Z,61.80
2023-11-23T05:42:47.924Z,61.28
2023-11-23T05:45:22.277Z,65.25
2023-11-23T05:47:50.596Z,71.07
2023-11-23T05:50:20.389Z,72.76
2023-11-23T05:52:48.554Z,71.65
2023-11-23T05:55:17.603Z,66.87
2023-11-23T05:57:45.888Z,69.86
2023-11-23T06:00:15.508Z,65.22
2023-11-23T06:02:44.086Z,65.94
2023-11-23T06:05:12.637Z,73.02
2023-11-23T06:07:42.245Z,73.81
2023-11-23T06:10:12.974Z,68.28
2023-11-23T06:12:41.592Z,64.61
2023-11-23T06:15:10.644Z,67.81
2023-11-23T06:17:39.057Z,67.57
2023-11-23T06:20:09.693Z,71.96
2023-11-23T06:22:37.798Z,68.19
2023-11-23T06:25:08.675Z,73.74
2023-11-23T06:27:37.099Z,67.89
2023-11-23T06:30:06.782Z,73.75
2023-11-23T06:32:34.992Z,67.21
2023-11-23T06:35:03.250Z,74.00
2023-11-23T06:37:31.494Z,73.70
2023-11-23T06:39:59.841Z,71.56
2023-11-23T06:42:29.200Z,72.36
2023-11-23T06:44:58.157Z,73.51
2023-11-23T06:47:26.508Z,65.95
2023-11-23T06:49:54.864Z,68.47
2023-11-23T06:52:23.169Z,74.71
2023-11-23T06:54:51.520Z,69.03
2023-11-23T06:57:20.123Z,74.25
2023-11-23T06:59:49.539Z,71.50
2023-11-23T07:02:17.948Z,69.35
2023-11-23T07:04:46.338Z,72.00
2023-11-23T07:07:14.379Z,68.31
2023-11-23T07:09:42.482Z,66.70
2023-11-23T07:12:11.375Z,76.63
2023-11-23T07:14:42.276Z,75.41
2023-11-23T07:17:11.818Z,65.62
2023-11-23T07:19:40.767Z,72.14
2023-11-23T07:22:08.734Z,67.63
2023-11-23T07:24:37.101Z,68.89
2023-11-23T07:27:05.856Z,74.41
2023-11-23T07:29:34.124Z,64.84
2023-11-23T07:32:02.351Z,72.42
2023-11-23T07:34:31.680Z,72.66
2023-11-23T07:36:59.942Z,66.53
2023-11-23T07:39:28.006Z,68.25
2023-11-23T07:41:56.209Z,67.55
2023-11-23T07:44:24.516Z,75.10
2023-11-23T07:46:52.822Z,70.01
2023-11-23T07:49:20.874Z,69.15
2023-11-23T07:51:50.714Z,71.87
2023-11-23T07:54:19.239Z,72.59
2023-11-23T07:56:47.852Z,71.49
2023-11-23T07:59:16.170Z,67.99
2023-11-23T08:01:44.496Z,65.09
2023-11-23T08:04:12.995Z,66.43
2023-11-23T08:06:41.154Z,72.70
2023-11-23T08:09:17.468Z,66.82
2023-11-23T08:11:45.559Z,68.08
2023-11-23T08:14:14.354Z,68.18
2023-11-23T08:16:42.558Z,64.79
2023-11-23T08:19:10.878Z,65.50
2023-11-23T08:21:41.179Z,69.86
2023-11-23T08:24:11.338Z,69.61
2023-11-23T08:26:39.376Z,72.41
2023-11-23T08:29:08.003Z,74.15
2023-11-23T08:31:36.545Z,74.33
2023-11-23T08:34:05.215Z,67.35
2023-11-23T08:36:33.262Z,64.33
2023-11-23T08:39:01.729Z,67.93
2023-11-23T08:41:31.994Z,64.75
2023-11-23T08:44:01.113Z,70.35
2023-11-23T08:46:29.305Z,68.05
2023-11-23T08:48:57.729Z,67.08
2023-11-23T08:51:26.075Z,71.08
2023-11-23T08:53:54.354Z,71.36
2023-11-23T08:56:23.856Z,69.65
2023-11-23T08:58:53.518Z,68.01
2023-11-23T09:01:21.568Z,63.95
2023-11-23T09:03:50.346Z,66.13
2023-11-23T09:06:19.870Z,66.45
2023-11-23T09:08:49.719Z,65.37
2023-11-23T09:11:18.198Z,63.57
2023-11-23T09:13:46.246Z,64.98
2023-11-23T09:16:16.025Z,65.29
2023-11-23T09:18:45.142Z,68.56
2023-11-23T09:21:13.527Z,68.81
2023-11-23T09:23:42.190Z,62.50
2023-11-23T09:26:10.306Z,66.40
2023-11-23T09:28:38.590Z,63.70
2023-11-23T09:31:09.653Z,67.98
2023-11-23T09:33:39.170Z,68.10
2023-11-23T09:36:07.639Z,66.88
2023-11-23T09:38:36.485Z,64.04
2023-11-23T09:41:09.194Z,64.55
2023-11-23T09:43:37.444Z,65.94
2023-11-23T09:46:07.480Z,68.47
2023-11-23T09:48:38.858Z,68.81
2023-11-23T09:51:12.105Z,63.19
2023-11-23T09:53:44.624Z,70.32
2023-11-23T09:56:12.768Z,69.14
2023-11-23T09:58:40.750Z,63.67
2023-11-23T10:01:10.306Z,63.85
2023-11-23T10:03:42.079Z,67.67
2023-11-23T10:06:12.544Z,63.49
2023-11-23T10:08:42.238Z,65.28
2023-11-23T10:11:10.524Z,70.28
2023-11-23T10:13:38.741Z,64.98
2023-11-23T10:16:07.396Z,65.75
2023-11-23T10:18:39.033Z,67.30
2023-11-23T10:21:07.522Z,65.02
2023-11-23T10:23:36.970Z,63.94
2023-11-23T10:26:05.026Z,66.65
2023-11-23T10:28:33.095Z,68.29
2023-11-23T10:31:05.379Z,65.35
2023-11-23T10:33:36.639Z,66.09
2023-11-23T10:36:06.581Z,65.22
2023-11-23T10:38:44.059Z,70.62
2023-11-23T10:41:15.810Z,65.97
2023-11-23T10:43:46.809Z,69.63
2023-11-23T10:46:15.596Z,70.51
2023-11-23T10:48:46.096Z,69.46
2023-11-23T10:51:17.509Z,66.91
2023-11-23T10:53:47.391Z,67.65
2023-11-23T10:56:20.326Z,65.20
2023-11-23T10:58:51.732Z,66.41
2023-11-23T11:01:23.659Z,67.41
2023-11-23T11:03:52.796Z,69.73
2023-11-23T11:06:22.927Z,67.01
2023-11-23T11:08:53.080Z,65.43
2023-11-23T11:11:23.544Z,65.84
2023-11-23T11:14:00.432Z,66.56
2023-11-23T11:16:34.843Z,67.76
2023-11-23T11:19:08.010Z,66.80
2023-11-23T11:21:43.787Z,65.31
2023-11-23T11:24:20.838Z,68.32
2023-11-23T11:26:50.331Z,65.45
2023-11-23T11:29:19.377Z,65.43
2023-11-23T11:31:50.358Z,66.05
2023-11-23T11:34:20.545Z,64.04
2023-11-23T11:36:53.113Z,67.42
2023-11-23T11:39:23.493Z,64.57
2023-11-23T11:42:00.558Z,64.12
2023-11-23T11:44:30.281Z,69.32
2023-11-23T11:46:58.562Z,63.79
2023-11-23T11:49:26.892Z,63.24
2023-11-23T11:51:55.593Z,62.82
2023-11-23T11:54:26.834Z,67.02
2023-11-23T11:56:55.298Z,66.21
2023-11-23T11:59:26.174Z,63.80
2023-11-23T12:01:55.064Z,64.97
2023-11-23T12:04:23.406Z,70.03
2023-11-23T12:06:51.791Z,66.33
2023-11-23T12:09:31.041Z,65.40
2023-11-23T12:12:11.450Z,67.69
2023-11-23T12:14:40.163Z,66.38
2023-11-23T12:17:11.600Z,65.25
2023-11-23T12:19:50.800Z,68.05
2023-11-23T12:22:22.163Z,63.88
2023-11-23T12:24:50.305Z,66.89
2023-11-23T12:27:22.145Z,66.69
2023-11-23T12:29:50.782Z,65.12
2023-11-23T12:32:18.968Z,66.51
2023-11-23T12:34:47.030Z,64.80
2023-11-23T12:37:15.828Z,69.07
2023-11-23T12:39:43.987Z,64.20
2023-11-23T12:42:12.320Z,64.75
2023-11-23T12:44:42.140Z,65.82
2023-11-23T12:47:10.535Z,69.17
2023-11-23T12:49:38.655Z,63.26
2023-11-23T12:52:08.966Z,63.80
2023-11-23T12:54:37.245Z,64.50
2023-11-23T12:57:05.931Z,66.09
2023-11-23T12:59:34.195Z,64.43
2023-11-23T13:02:22.512Z,67.94
2023-11-23T13:04:50.839Z,66.71
2023-11-23T13:07:19.167Z,69.09
2023-11-23T13:09:49.720Z,66.58
2023-11-23T13:12:19.110Z,65.63
2023-11-23T13:14:48.725Z,67.63
2023-11-23T13:17:19.880Z,63.44
2023-11-23T13:19:49.202Z,68.39
2023-11-23T13:22:18.567Z,64.20
2023-11-23T13:24:48.551Z,63.73
2023-11-23T13:27:18.281Z,61.69
2023-11-23T13:29:48.642Z,65.13
2023-11-23T13:32:20.407Z,63.69
2023-11-23T13:34:50.630Z,62.05
2023-11-23T13:37:20.584Z,60.54
2023-11-23T13:39:49.535Z,63.92
2023-11-23T13:42:18.750Z,62.73
2023-11-23T13:44:47.872Z,64.31
2023-11-23T13:47:16.158Z,61.85
2023-11-23T13:49:46.104Z,65.94
2023-11-23T13:52:14.722Z,64.80
2023-11-23T13:54:52.037Z,66.65
2023-11-23T13:57:20.750Z,67.50
2023-11-23T13:59:50.577Z,65.93
2023-11-23T14:02:20.995Z,67.78
2023-11-23T14:04:50.910Z,69.08
2023-11-23T14:07:19.685Z,67.02
2023-11-23T14:09:48.129Z,66.08
2023-11-23T14:12:17.407Z,65.89
2023-11-23T14:14:49.128Z,70.41
2023-11-23T14:17:19.579Z,68.95
2023-11-23T14:19:52.554Z,69.65
2023-11-23T14:22:22.120Z,71.57
2023-11-23T14:24:51.649Z,69.77
2023-11-23T14:27:21.780Z,67.04
2023-11-23T14:29:51.691Z,68.28
2023-11-23T14:32:21.527Z,68.27
2023-11-23T14:34:53.144Z,68.86
2023-11-23T14:37:24.259Z,69.22
2023-11-23T14:39:53.621Z,67.04
2023-11-23T14:42:23.052Z,69.69
2023-11-23T14:44:54.949Z,67.61
2023-11-23T14:47:28.628Z,67.26
2023-11-23T14:49:58.779Z,66.84
2023-11-23T14:52:29.394Z,68.20
2023-11-23T14:55:01.682Z,67.67
2023-11-23T14:57:32.227Z,69.15
2023-11-23T15:00:04.409Z,66.09
2023-11-23T15:02:34.686Z,69.40
2023-11-23T15:05:06.951Z,65.70
2023-11-23T15:07:40.921Z,69.09
2023-11-23T15:10:14.013Z,68.12
2023-11-23T15:12:44.715Z,70.57
2023-11-23T15:15:14.758Z,66.01
2023-11-23T15:17:44.301Z,70.02
2023-11-23T15:20:16.145Z,67.26
2023-11-23T15:22:45.547Z,68.10
2023-11-23T15:25:14.841Z,66.73
2023-11-23T15:27:47.000Z,68.94
2023-11-23T15:30:17.400Z,67.95
2023-11-23T15:32:46.966Z,68.92
2023-11-23T15:35:18.104Z,67.23
2023-11-23T15:37:50.070Z,66.67
2023-11-23T15:40:20.882Z,67.92
2023-11-23T15:42:52.401Z,68.05
2023-11-23T15:45:22.192Z,71.36
2023-11-23T15:47:51.795Z,65.50
2023-11-23T15:50:26.626Z,66.12
2023-11-23T15:52:58.370Z,66.08
2023-11-23T15:55:29.037Z,69.00
2023-11-23T15:57:58.429Z,67.17
2023-11-23T16:00:28.596Z,66.53
2023-11-23T16:02:59.004Z,69.11
2023-11-23T16:05:31.514Z,69.49
2023-11-23T16:08:01.571Z,70.25
2023-11-23T16:10:31.853Z,70.98
2023-11-23T16:13:01.886Z,72.25
2023-11-23T16:15:33.472Z,73.23
2023-11-23T16:18:07.279Z,70.26
2023-11-23T16:20:39.185Z,73.74
2023-11-23T16:23:10.787Z,71.49
2023-11-23T16:25:41.101Z,67.34
2023-11-23T16:28:10.629Z,69.42
2023-11-23T16:30:41.460Z,68.38
2023-11-23T16:33:11.658Z,67.22
2023-11-23T16:35:43.268Z,69.10
2023-11-23T16:38:12.985Z,68.98
2023-11-23T16:40:43.051Z,68.24
2023-11-23T16:43:13.104Z,74.53
2023-11-23T16:45:43.109Z,68.17
2023-11-23T16:48:13.267Z,73.53
2023-11-23T16:50:50.298Z,70.94
2023-11-23T16:53:20.940Z,70.76
2023-11-23T16:55:52.699Z,67.99
2023-11-23T16:58:22.042Z,67.84
2023-11-23T17:00:51.893Z,71.10
2023-11-23T17:03:22.191Z,68.43
2023-11-23T17:05:54.954Z,70.49
2023-11-23T17:08:25.583Z,66.86
2023-11-23T17:10:55.968Z,73.48
2023-11-23T17:13:26.540Z,72.76
2023-11-23T17:15:56.778Z,70.48
2023-11-23T17:18:27.910Z,68.16
2023-11-23T17:20:59.692Z,70.16
2023-11-23T17:23:31.591Z,68.33
2023-11-23T17:26:01.095Z,72.86
2023-11-23T17:28:31.474Z,73.17
2023-11-23T17:31:01.768Z,69.09
2023-11-23T17:33:33.907Z,67.68
2023-11-23T17:36:06.528Z,69.50
2023-11-23T17:38:37.172Z,69.74
2023-11-23T17:41:10.758Z,66.94
2023-11-23T17:43:41.609Z,68.50
2023-11-23T17:46:11.420Z,71.20
2023-11-23T17:48:41.589Z,71.47
2023-11-23T17:51:14.715Z,70.42
2023-11-23T17:53:44.940Z,70.67
2023-11-23T17:56:16.569Z,68.51
2023-11-23T17:58:48.736Z,70.47
2023-11-23T18:01:20.997Z,69.14
2023-11-23T18:03:50.686Z,69.09
2023-11-23T18:06:22.384Z,71.29
2023-11-23T18:08:52.771Z,71.05
2023-11-23T18:11:22.967Z,69.12
2023-11-23T18:13:54.198Z,72.58
2023-11-23T18:16:23.329Z,73.06
2023-11-23T18:18:54.123Z,68.76
2023-11-23T18:21:25.729Z,69.95
2023-11-23T18:23:57.647Z,70.91
2023-11-23T18:26:29.346Z,69.15
2023-11-23T18:28:59.629Z,71.66
2023-11-23T18:31:33.730Z,74.53
2023-11-23T18:34:05.837Z,71.69
2023-11-23T18:36:39.183Z,69.05
2023-11-23T18:39:14.819Z,70.94
2023-11-23T18:41:45.154Z,71.34
2023-11-23T18:44:15.895Z,68.60
2023-11-23T18:46:47.928Z,70.14
2023-11-23T18:49:20.580Z,70.15
2023-11-23T18:51:52.770Z,74.88
2023-11-23T18:54:25.616Z,70.28
2023-11-23T18:56:56.956Z,70.34
2023-11-23T18:59:30.101Z,67.73
2023-11-23T19:02:01.475Z,71.48
2023-11-23T19:04:32.026Z,73.72
2023-11-23T19:07:03.351Z,71.88
2023-11-23T19:09:34.552Z,70.75
2023-11-23T19:12:06.238Z,73.50
2023-11-23T19:14:35.903Z,71.52
2023-11-23T19:17:06.300Z,71.01
2023-11-23T19:19:38.842Z,71.15
2023-11-23T19:22:27.537Z,74.32
2023-11-23T19:24:57.860Z,69.07
2023-11-23T19:27:29.329Z,70.65
2023-11-23T19:30:01.863Z,69.32
2023-11-23T19:32:34.167Z,72.38
2023-11-23T19:35:10.758Z,72.83
2023-11-23T19:37:45.089Z,71.16
2023-11-23T19:40:19.869Z,71.38
2023-11-23T19:42:52.798Z,75.14
2023-11-23T19:45:25.514Z,71.10
2023-11-23T19:47:57.682Z,69.68
2023-11-23T19:50:30.714Z,70.69
2023-11-23T19:53:05.880Z,71.83
2023-11-23T19:55:36.596Z,69.51
2023-11-23T19:58:08.141Z,68.29
2023-11-23T20:00:40.685Z,72.01
2023-11-23T20:03:12.392Z,71.41
2023-11-23T20:05:43.168Z,72.43
2023-11-23T20:08:16.209Z,67.78
2023-11-23T20:10:47.236Z,70.47
2023-11-23T20:13:17.968Z,70.64
2023-11-23T20:15:49.796Z,69.77
2023-11-23T20:18:21.287Z,68.37
2023-11-23T20:20:53.990Z,73.67
2023-11-23T20:23:25.238Z,76.76
2023-11-23T20:25:55.476Z,71.35
2023-11-23T20:28:26.242Z,73.82
2023-11-23T20:30:56.534Z,73.82
2023-11-23T20:33:26.935Z,71.55
2023-11-23T20:35:57.525Z,69.76
2023-11-23T20:38:34.812Z,74.63
2023-11-23T20:41:08.393Z,69.55
2023-11-23T20:43:39.720Z,72.35
2023-11-23T20:46:13.083Z,70.28
2023-11-23T20:48:43.403Z,72.81
2023-11-23T20:51:15.040Z,74.84
2023-11-23T20:53:46.607Z,71.49
2023-11-23T20:56:18.251Z,71.82
2023-11-23T20:58:50.149Z,69.36
2023-11-23T21:01:22.626Z,70.45
2023-11-23T21:03:53.366Z,70.03
2023-11-23T21:06:26.498Z,69.65
2023-11-23T21:08:58.922Z,68.55
2023-11-23T21:11:29.364Z,70.60
2023-11-23T21:13:59.619Z,71.37
2023-11-23T21:16:30.680Z,71.63
2023-11-23T21:19:00.875Z,71.88
2023-11-23T21:21:31.044Z,73.23
2023-11-23T21:24:02.268Z,70.54
2023-11-23T21:26:33.723Z,68.10
2023-11-23T21:29:03.138Z,71.85
2023-11-23T21:31:33.420Z,70.92
2023-11-23T21:34:03.410Z,67.75
2023-11-23T21:36:35.841Z,67.18
2023-11-23T21:39:09.726Z,71.35
2023-11-23T21:41:39.868Z,72.25
2023-11-23T21:44:09.889Z,72.40
2023-11-23T21:46:40.452Z,73.46
2023-11-23T21:49:09.856Z,69.51
2023-11-23T21:51:39.468Z,70.04
2023-11-23T21:54:11.282Z,73.65
2023-11-23T21:56:40.312Z,72.34
2023-11-23T21:59:09.713Z,71.87
2023-11-23T22:01:38.407Z,72.68
2023-11-23T22:04:07.308Z,67.51
2023-11-23T22:06:35.735Z,66.69
2023-11-23T22:09:04.340Z,67.11
2023-11-23T22:11:33.874Z,73.60
2023-11-23T22:14:02.232Z,72.19
2023-11-23T22:16:30.663Z,70.22
2023-11-23T22:18:59.287Z,67.89
2023-11-23T22:21:28.214Z,68.21
2023-11-23T22:23:56.928Z,65.01
2023-11-23T22:26:25.619Z,69.96
2023-11-23T22:28:56.568Z,65.57
2023-11-23T22:31:27.503Z,65.52
2023-11-23T22:33:56.330Z,70.59
2023-11-23T22:36:25.537Z,67.66
2023-11-23T22:38:55.296Z,66.53
2023-11-23T22:41:24.824Z,68.35
2023-11-23T22:43:53.183Z,71.24
2023-11-23T22:46:23.514Z,70.90
2023-11-23T22:48:52.147Z,68.32
2023-11-23T22:51:20.600Z,69.75
2023-11-23T22:53:48.621Z,69.25
2023-11-23T22:56:17.152Z,68.28
2023-11-23T22:58:45.433Z,72.40
2023-11-23T23:01:14.854Z,69.36
2023-11-23T23:03:45.128Z,69.37
2023-11-23T23:06:13.720Z,73.33
2023-11-23T23:08:41.815Z,75.40
2023-11-23T23:11:11.481Z,68.04
2023-11-23T23:13:40.013Z,71.77
2023-11-23T23:16:08.696Z,71.05
2023-11-23T23:18:36.936Z,73.39
2023-11-23T23:21:06.945Z,70.67
2023-11-23T23:23:34.960Z,74.62
2023-11-23T23:26:03.936Z,76.03
2023-11-23T23:28:32.865Z,76.64
2023-11-23T23:31:01.711Z,70.35
2023-11-23T23:33:30.108Z,71.83
2023-11-23T23:35:59.301Z,75.30
2023-11-23T23:38:28.904Z,72.48
2023-11-23T23:40:56.937Z,73.90
2023-11-23T23:43:26.041Z,71.60
2023-11-23T23:45:54.809Z,72.64
2023-11-23T23:48:22.914Z,74.01
2023-11-23T23:50:51.709Z,75.82
2023-11-23T23:53:19.904Z,73.70
2023-11-23T23:55:49.842Z,73.88
2023-11-23T23:58:18.210Z,75.91
